sensor_id;sensor_type;location;lat;lon;timestamp;P1;durP1;ratioP1;P2;durP2;ratioP2
19883;SDS011;10104;50.732;10.174;2024-03-17T00:01:38;5.93;;;3.80;;
19883;SDS011;10104;50.732;10.174;2024-03-17T00:04:20;5.20;;;3.00;;
19883;SDS011;10104;50.732;10.174;2024-03-17T00:06:59;6.67;;;2.73;;
19883;SDS011;10104;50.732;10.174;2024-03-17T00:09:39;4.77;;;3.20;;
19883;SDS011;10104;50.732;10.174;2024-03-17T00:12:19;5.27;;;3.20;;
19883;SDS011;10104;50.732;10.174;2024-03-17T00:14:58;6.13;;;3.43;;
19883;SDS011;10104;50.732;10.174;2024-03-17T00:17:36;5.30;;;3.47;;
19883;SDS011;10104;50.732;10.174;2024-03-17T00:20:16;5.77;;;3.70;;
19883;SDS011;10104;50.732;10.174;2024-03-17T00:22:59;5.93;;;3.60;;
19883;SDS011;10104;50.732;10.174;2024-03-17T00:25:38;8.03;;;4.00;;
19883;SDS011;10104;50.732;10.174;2024-03-17T00:28:18;7.20;;;3.67;;
19883;SDS011;10104;50.732;10.174;2024-03-17T00:30:59;6.80;;;4.23;;
19883;SDS011;10104;50.732;10.174;2024-03-17T00:33:39;4.37;;;2.93;;
19883;SDS011;10104;50.732;10.174;2024-03-17T00:36:18;6.53;;;3.53;;
19883;SDS011;10104;50.732;10.174;2024-03-17T00:38:57;8.07;;;4.43;;
19883;SDS011;10104;50.732;10.174;2024-03-17T00:41:37;6.37;;;3.97;;
19883;SDS011;10104;50.732;10.174;2024-03-17T00:44:16;6.27;;;4.47;;
19883;SDS011;10104;50.732;10.174;2024-03-17T00:46:55;7.93;;;3.97;;
19883;SDS011;10104;50.732;10.174;2024-03-17T00:49:33;4.30;;;2.90;;
19883;SDS011;10104;50.732;10.174;2024-03-17T00:52:12;4.63;;;3.20;;
19883;SDS011;10104;50.732;10.174;2024-03-17T00:54:53;6.80;;;3.70;;
19883;SDS011;10104;50.732;10.174;2024-03-17T00:57:33;5.80;;;3.83;;
19883;SDS011;10104;50.732;10.174;2024-03-17T01:00:12;6.30;;;3.50;;
19883;SDS011;10104;50.732;10.174;2024-03-17T01:02:51;6.57;;;4.00;;
19883;SDS011;10104;50.732;10.174;2024-03-17T01:05:30;8.60;;;4.97;;
19883;SDS011;10104;50.732;10.174;2024-03-17T01:08:10;7.97;;;4.30;;
19883;SDS011;10104;50.732;10.174;2024-03-17T01:10:50;5.57;;;3.87;;
19883;SDS011;10104;50.732;10.174;2024-03-17T01:13:30;6.70;;;4.30;;
19883;SDS011;10104;50.732;10.174;2024-03-17T01:16:09;7.17;;;4.33;;
19883;SDS011;10104;50.732;10.174;2024-03-17T01:18:48;5.43;;;4.00;;
19883;SDS011;10104;50.732;10.174;2024-03-17T01:21:27;9.90;;;4.77;;
19883;SDS011;10104;50.732;10.174;2024-03-17T01:24:07;6.70;;;3.80;;
19883;SDS011;10104;50.732;10.174;2024-03-17T01:26:46;7.60;;;4.37;;
19883;SDS011;10104;50.732;10.174;2024-03-17T01:29:26;7.00;;;4.77;;
19883;SDS011;10104;50.732;10.174;2024-03-17T01:32:06;7.30;;;4.43;;
19883;SDS011;10104;50.732;10.174;2024-03-17T01:34:45;7.13;;;4.13;;
19883;SDS011;10104;50.732;10.174;2024-03-17T01:37:25;8.40;;;4.83;;
19883;SDS011;10104;50.732;10.174;2024-03-17T01:40:04;6.30;;;4.67;;
19883;SDS011;10104;50.732;10.174;2024-03-17T01:42:47;7.87;;;4.80;;
19883;SDS011;10104;50.732;10.174;2024-03-17T01:45:27;12.23;;;5.20;;
19883;SDS011;10104;50.732;10.174;2024-03-17T01:48:08;7.03;;;3.93;;
19883;SDS011;10104;50.732;10.174;2024-03-17T01:50:55;8.13;;;4.20;;
19883;SDS011;10104;50.732;10.174;2024-03-17T01:53:36;10.43;;;4.37;;
19883;SDS011;10104;50.732;10.174;2024-03-17T01:56:16;6.57;;;4.17;;
19883;SDS011;10104;50.732;10.174;2024-03-17T01:58:56;6.67;;;4.23;;
19883;SDS011;10104;50.732;10.174;2024-03-17T02:01:36;5.40;;;3.97;;
19883;SDS011;10104;50.732;10.174;2024-03-17T02:04:16;6.60;;;4.13;;
19883;SDS011;10104;50.732;10.174;2024-03-17T02:06:56;7.97;;;4.43;;
19883;SDS011;10104;50.732;10.174;2024-03-17T02:09:35;5.80;;;3.93;;
19883;SDS011;10104;50.732;10.174;2024-03-17T02:12:14;8.60;;;5.03;;
19883;SDS011;10104;50.732;10.174;2024-03-17T02:14:53;6.87;;;4.40;;
19883;SDS011;10104;50.732;10.174;2024-03-17T02:17:32;10.37;;;4.37;;
19883;SDS011;10104;50.732;10.174;2024-03-17T02:20:12;7.97;;;5.10;;
19883;SDS011;10104;50.732;10.174;2024-03-17T02:22:53;7.17;;;4.27;;
19883;SDS011;10104;50.732;10.174;2024-03-17T02:25:32;5.77;;;4.20;;
19883;SDS011;10104;50.732;10.174;2024-03-17T02:28:11;7.13;;;4.50;;
19883;SDS011;10104;50.732;10.174;2024-03-17T02:30:50;6.27;;;4.40;;
19883;SDS011;10104;50.732;10.174;2024-03-17T02:33:29;7.43;;;4.47;;
19883;SDS011;10104;50.732;10.174;2024-03-17T02:36:08;8.30;;;5.20;;
19883;SDS011;10104;50.732;10.174;2024-03-17T02:38:50;6.57;;;4.50;;
19883;SDS011;10104;50.732;10.174;2024-03-17T02:41:48;9.17;;;4.30;;
19883;SDS011;10104;50.732;10.174;2024-03-17T02:44:29;7.30;;;4.87;;
19883;SDS011;10104;50.732;10.174;2024-03-17T02:47:09;7.40;;;5.07;;
19883;SDS011;10104;50.732;10.174;2024-03-17T02:49:49;7.87;;;5.03;;
19883;SDS011;10104;50.732;10.174;2024-03-17T02:52:29;6.60;;;4.10;;
19883;SDS011;10104;50.732;10.174;2024-03-17T02:55:08;5.80;;;3.77;;
19883;SDS011;10104;50.732;10.174;2024-03-17T02:57:47;5.97;;;4.20;;
19883;SDS011;10104;50.732;10.174;2024-03-17T03:00:26;5.87;;;3.67;;
19883;SDS011;10104;50.732;10.174;2024-03-17T03:03:05;6.77;;;4.10;;
19883;SDS011;10104;50.732;10.174;2024-03-17T03:05:45;6.27;;;4.13;;
19883;SDS011;10104;50.732;10.174;2024-03-17T03:08:24;6.27;;;3.97;;
19883;SDS011;10104;50.732;10.174;2024-03-17T03:11:04;5.50;;;3.97;;
19883;SDS011;10104;50.732;10.174;2024-03-17T03:13:45;7.63;;;4.23;;
19883;SDS011;10104;50.732;10.174;2024-03-17T03:16:25;7.70;;;4.30;;
19883;SDS011;10104;50.732;10.174;2024-03-17T03:19:04;7.07;;;4.60;;
19883;SDS011;10104;50.732;10.174;2024-03-17T03:21:44;6.63;;;3.90;;
19883;SDS011;10104;50.732;10.174;2024-03-17T03:24:23;5.03;;;3.90;;
19883;SDS011;10104;50.732;10.174;2024-03-17T03:27:02;7.43;;;3.77;;
19883;SDS011;10104;50.732;10.174;2024-03-17T03:29:43;7.53;;;3.97;;
19883;SDS011;10104;50.732;10.174;2024-03-17T03:32:22;7.53;;;4.13;;
19883;SDS011;10104;50.732;10.174;2024-03-17T03:35:01;7.87;;;4.17;;
19883;SDS011;10104;50.732;10.174;2024-03-17T03:37:40;6.43;;;3.60;;
19883;SDS011;10104;50.732;10.174;2024-03-17T03:40:20;5.50;;;3.80;;
19883;SDS011;10104;50.732;10.174;2024-03-17T03:42:59;5.93;;;3.87;;
19883;SDS011;10104;50.732;10.174;2024-03-17T03:45:39;7.37;;;4.03;;
19883;SDS011;10104;50.732;10.174;2024-03-17T03:48:19;6.20;;;4.00;;
19883;SDS011;10104;50.732;10.174;2024-03-17T03:50:58;9.03;;;4.43;;
19883;SDS011;10104;50.732;10.174;2024-03-17T03:53:37;7.73;;;4.00;;
19883;SDS011;10104;50.732;10.174;2024-03-17T03:56:17;6.53;;;3.93;;
19883;SDS011;10104;50.732;10.174;2024-03-17T03:58:57;7.13;;;4.00;;
19883;SDS011;10104;50.732;10.174;2024-03-17T04:01:36;6.53;;;4.00;;
19883;SDS011;10104;50.732;10.174;2024-03-17T04:04:16;7.90;;;3.77;;
19883;SDS011;10104;50.732;10.174;2024-03-17T04:06:55;8.07;;;4.10;;
19883;SDS011;10104;50.732;10.174;2024-03-17T04:09:34;7.13;;;3.97;;
19883;SDS011;10104;50.732;10.174;2024-03-17T04:12:13;5.93;;;4.07;;
19883;SDS011;10104;50.732;10.174;2024-03-17T04:14:52;6.27;;;3.37;;
19883;SDS011;10104;50.732;10.174;2024-03-17T04:17:32;4.97;;;3.80;;
19883;SDS011;10104;50.732;10.174;2024-03-17T04:20:12;10.67;;;4.30;;
19883;SDS011;10104;50.732;10.174;2024-03-17T04:22:54;8.27;;;3.93;;
19883;SDS011;10104;50.732;10.174;2024-03-17T04:25:33;4.93;;;3.77;;
19883;SDS011;10104;50.732;10.174;2024-03-17T04:28:13;4.93;;;3.80;;
19883;SDS011;10104;50.732;10.174;2024-03-17T04:31:01;12.07;;;4.90;;
19883;SDS011;10104;50.732;10.174;2024-03-17T04:33:43;6.10;;;4.33;;
19883;SDS011;10104;50.732;10.174;2024-03-17T04:36:22;7.10;;;4.10;;
19883;SDS011;10104;50.732;10.174;2024-03-17T04:39:01;6.37;;;4.17;;
19883;SDS011;10104;50.732;10.174;2024-03-17T04:41:40;6.47;;;4.20;;
19883;SDS011;10104;50.732;10.174;2024-03-17T04:44:19;5.87;;;4.03;;
19883;SDS011;10104;50.732;10.174;2024-03-17T04:46:58;6.63;;;3.77;;
19883;SDS011;10104;50.732;10.174;2024-03-17T04:49:42;6.80;;;4.23;;
19883;SDS011;10104;50.732;10.174;2024-03-17T04:52:22;7.90;;;4.37;;
19883;SDS011;10104;50.732;10.174;2024-03-17T04:55:01;7.87;;;4.17;;
19883;SDS011;10104;50.732;10.174;2024-03-17T04:57:41;8.20;;;4.27;;
19883;SDS011;10104;50.732;10.174;2024-03-17T05:00:20;7.63;;;4.77;;
19883;SDS011;10104;50.732;10.174;2024-03-17T05:03:00;6.43;;;4.30;;
19883;SDS011;10104;50.732;10.174;2024-03-17T05:05:40;8.50;;;4.27;;
19883;SDS011;10104;50.732;10.174;2024-03-17T05:08:19;5.70;;;3.67;;
19883;SDS011;10104;50.732;10.174;2024-03-17T05:11:02;6.97;;;4.43;;
19883;SDS011;10104;50.732;10.174;2024-03-17T05:13:45;6.97;;;4.90;;
19883;SDS011;10104;50.732;10.174;2024-03-17T05:16:25;9.17;;;4.10;;
19883;SDS011;10104;50.732;10.174;2024-03-17T05:19:05;6.63;;;4.17;;
19883;SDS011;10104;50.732;10.174;2024-03-17T05:21:45;7.87;;;4.43;;
19883;SDS011;10104;50.732;10.174;2024-03-17T05:24:24;6.07;;;3.97;;
19883;SDS011;10104;50.732;10.174;2024-03-17T05:27:03;7.80;;;4.53;;
19883;SDS011;10104;50.732;10.174;2024-03-17T05:29:43;5.73;;;3.97;;
19883;SDS011;10104;50.732;10.174;2024-03-17T05:32:22;6.10;;;4.37;;
19883;SDS011;10104;50.732;10.174;2024-03-17T05:35:00;7.53;;;4.70;;
19883;SDS011;10104;50.732;10.174;2024-03-17T05:37:40;6.97;;;4.13;;
19883;SDS011;10104;50.732;10.174;2024-03-17T05:40:19;9.57;;;5.00;;
19883;SDS011;10104;50.732;10.174;2024-03-17T05:42:59;8.57;;;5.40;;
19883;SDS011;10104;50.732;10.174;2024-03-17T05:45:39;9.17;;;4.70;;
19883;SDS011;10104;50.732;10.174;2024-03-17T05:48:18;9.03;;;4.80;;
19883;SDS011;10104;50.732;10.174;2024-03-17T05:50:57;6.93;;;4.80;;
19883;SDS011;10104;50.732;10.174;2024-03-17T05:53:37;6.30;;;4.23;;
19883;SDS011;10104;50.732;10.174;2024-03-17T05:56:22;7.87;;;4.97;;
19883;SDS011;10104;50.732;10.174;2024-03-17T05:59:02;8.70;;;4.40;;
19883;SDS011;10104;50.732;10.174;2024-03-17T06:01:41;7.10;;;4.60;;
19883;SDS011;10104;50.732;10.174;2024-03-17T06:04:21;5.87;;;4.20;;
19883;SDS011;10104;50.732;10.174;2024-03-17T06:07:00;8.57;;;4.13;;
19883;SDS011;10104;50.732;10.174;2024-03-17T06:09:40;9.10;;;5.10;;
19883;SDS011;10104;50.732;10.174;2024-03-17T06:12:19;11.97;;;6.97;;
19883;SDS011;10104;50.732;10.174;2024-03-17T06:14:58;11.00;;;6.70;;
19883;SDS011;10104;50.732;10.174;2024-03-17T06:17:38;10.53;;;5.70;;
19883;SDS011;10104;50.732;10.174;2024-03-17T06:20:17;7.27;;;4.83;;
19883;SDS011;10104;50.732;10.174;2024-03-17T06:22:57;6.50;;;4.30;;
19883;SDS011;10104;50.732;10.174;2024-03-17T06:25:43;6.97;;;4.53;;
19883;SDS011;10104;50.732;10.174;2024-03-17T06:28:27;7.70;;;4.60;;
19883;SDS011;10104;50.732;10.174;2024-03-17T06:31:07;8.10;;;4.57;;
19883;SDS011;10104;50.732;10.174;2024-03-17T06:33:49;7.83;;;4.80;;
19883;SDS011;10104;50.732;10.174;2024-03-17T06:36:27;10.10;;;5.20;;
19883;SDS011;10104;50.732;10.174;2024-03-17T06:39:06;7.87;;;4.60;;
19883;SDS011;10104;50.732;10.174;2024-03-17T06:41:46;8.90;;;5.30;;
19883;SDS011;10104;50.732;10.174;2024-03-17T06:44:25;14.30;;;6.47;;
19883;SDS011;10104;50.732;10.174;2024-03-17T06:47:08;19.20;;;10.43;;
19883;SDS011;10104;50.732;10.174;2024-03-17T06:49:48;12.37;;;7.73;;
19883;SDS011;10104;50.732;10.174;2024-03-17T06:52:27;12.37;;;7.33;;
19883;SDS011;10104;50.732;10.174;2024-03-17T06:55:06;11.77;;;6.90;;
19883;SDS011;10104;50.732;10.174;2024-03-17T06:57:46;8.67;;;5.97;;
19883;SDS011;10104;50.732;10.174;2024-03-17T07:00:25;9.17;;;6.03;;
19883;SDS011;10104;50.732;10.174;2024-03-17T07:03:04;13.70;;;6.33;;
19883;SDS011;10104;50.732;10.174;2024-03-17T07:05:50;13.37;;;6.07;;
19883;SDS011;10104;50.732;10.174;2024-03-17T07:08:33;15.93;;;7.20;;
19883;SDS011;10104;50.732;10.174;2024-03-17T07:11:12;10.73;;;6.63;;
19883;SDS011;10104;50.732;10.174;2024-03-17T07:13:52;9.23;;;6.73;;
19883;SDS011;10104;50.732;10.174;2024-03-17T07:16:30;10.80;;;6.20;;
19883;SDS011;10104;50.732;10.174;2024-03-17T07:19:10;9.37;;;5.93;;
19883;SDS011;10104;50.732;10.174;2024-03-17T07:21:50;8.07;;;5.33;;
19883;SDS011;10104;50.732;10.174;2024-03-17T07:24:29;12.07;;;7.87;;
19883;SDS011;10104;50.732;10.174;2024-03-17T07:27:09;21.60;;;14.17;;
19883;SDS011;10104;50.732;10.174;2024-03-17T07:29:52;24.67;;;17.93;;
19883;SDS011;10104;50.732;10.174;2024-03-17T07:32:31;17.67;;;12.97;;
19883;SDS011;10104;50.732;10.174;2024-03-17T07:35:11;15.17;;;10.93;;
19883;SDS011;10104;50.732;10.174;2024-03-17T07:37:50;15.87;;;9.90;;
19883;SDS011;10104;50.732;10.174;2024-03-17T07:40:29;12.07;;;7.63;;
19883;SDS011;10104;50.732;10.174;2024-03-17T07:43:08;8.23;;;6.30;;
19883;SDS011;10104;50.732;10.174;2024-03-17T07:45:56;10.67;;;6.23;;
19883;SDS011;10104;50.732;10.174;2024-03-17T07:48:36;10.07;;;6.70;;
19883;SDS011;10104;50.732;10.174;2024-03-17T07:51:16;12.97;;;7.73;;
19883;SDS011;10104;50.732;10.174;2024-03-17T07:53:58;13.93;;;8.93;;
19883;SDS011;10104;50.732;10.174;2024-03-17T07:56:37;11.80;;;7.93;;
19883;SDS011;10104;50.732;10.174;2024-03-17T07:59:16;10.10;;;6.63;;
19883;SDS011;10104;50.732;10.174;2024-03-17T08:01:57;9.30;;;5.93;;
19883;SDS011;10104;50.732;10.174;2024-03-17T08:04:36;11.60;;;6.93;;
19883;SDS011;10104;50.732;10.174;2024-03-17T08:07:18;12.10;;;6.47;;
19883;SDS011;10104;50.732;10.174;2024-03-17T08:09:57;11.20;;;6.63;;
19883;SDS011;10104;50.732;10.174;2024-03-17T08:12:36;11.83;;;6.80;;
19883;SDS011;10104;50.732;10.174;2024-03-17T08:15:15;9.23;;;6.37;;
19883;SDS011;10104;50.732;10.174;2024-03-17T08:17:55;10.10;;;6.37;;
19883;SDS011;10104;50.732;10.174;2024-03-17T08:20:40;11.33;;;6.80;;
19883;SDS011;10104;50.732;10.174;2024-03-17T08:23:24;9.83;;;6.23;;
19883;SDS011;10104;50.732;10.174;2024-03-17T08:26:03;7.80;;;5.87;;
19883;SDS011;10104;50.732;10.174;2024-03-17T08:28:42;8.97;;;6.43;;
19883;SDS011;10104;50.732;10.174;2024-03-17T08:31:21;13.07;;;6.00;;
19883;SDS011;10104;50.732;10.174;2024-03-17T08:34:01;7.87;;;5.53;;
19883;SDS011;10104;50.732;10.174;2024-03-17T08:36:40;9.73;;;5.40;;
19883;SDS011;10104;50.732;10.174;2024-03-17T08:39:19;10.03;;;6.23;;
19883;SDS011;10104;50.732;10.174;2024-03-17T08:41:59;12.27;;;6.53;;
19883;SDS011;10104;50.732;10.174;2024-03-17T08:44:38;12.50;;;6.77;;
19883;SDS011;10104;50.732;10.174;2024-03-17T08:47:17;12.57;;;6.73;;
19883;SDS011;10104;50.732;10.174;2024-03-17T08:49:56;11.60;;;6.77;;
19883;SDS011;10104;50.732;10.174;2024-03-17T08:52:37;8.00;;;5.57;;
19883;SDS011;10104;50.732;10.174;2024-03-17T08:55:15;8.93;;;5.77;;
19883;SDS011;10104;50.732;10.174;2024-03-17T08:57:55;15.43;;;6.20;;
19883;SDS011;10104;50.732;10.174;2024-03-17T09:00:35;7.53;;;5.77;;
19883;SDS011;10104;50.732;10.174;2024-03-17T09:03:15;8.63;;;6.13;;
19883;SDS011;10104;50.732;10.174;2024-03-17T09:05:55;9.87;;;6.53;;
19883;SDS011;10104;50.732;10.174;2024-03-17T09:08:34;10.50;;;6.67;;
19883;SDS011;10104;50.732;10.174;2024-03-17T09:11:13;9.77;;;6.03;;
19883;SDS011;10104;50.732;10.174;2024-03-17T09:13:53;10.17;;;6.40;;
19883;SDS011;10104;50.732;10.174;2024-03-17T09:16:33;12.97;;;5.83;;
19883;SDS011;10104;50.732;10.174;2024-03-17T09:19:13;9.57;;;6.47;;
19883;SDS011;10104;50.732;10.174;2024-03-17T09:21:52;8.90;;;6.23;;
19883;SDS011;10104;50.732;10.174;2024-03-17T09:24:31;8.20;;;6.67;;
19883;SDS011;10104;50.732;10.174;2024-03-17T09:27:11;9.10;;;6.77;;
19883;SDS011;10104;50.732;10.174;2024-03-17T09:29:50;10.50;;;6.70;;
19883;SDS011;10104;50.732;10.174;2024-03-17T09:32:29;10.20;;;7.00;;
19883;SDS011;10104;50.732;10.174;2024-03-17T09:35:08;11.33;;;7.40;;
19883;SDS011;10104;50.732;10.174;2024-03-17T09:37:48;12.37;;;6.97;;
19883;SDS011;10104;50.732;10.174;2024-03-17T09:40:27;11.50;;;7.20;;
19883;SDS011;10104;50.732;10.174;2024-03-17T09:43:08;9.87;;;6.97;;
19883;SDS011;10104;50.732;10.174;2024-03-17T09:45:51;11.30;;;6.73;;
19883;SDS011;10104;50.732;10.174;2024-03-17T09:48:36;13.73;;;6.07;;
19883;SDS011;10104;50.732;10.174;2024-03-17T09:51:18;8.53;;;5.80;;
19883;SDS011;10104;50.732;10.174;2024-03-17T09:53:59;8.50;;;6.23;;
19883;SDS011;10104;50.732;10.174;2024-03-17T09:56:38;9.17;;;6.13;;
19883;SDS011;10104;50.732;10.174;2024-03-17T09:59:17;8.47;;;5.73;;
19883;SDS011;10104;50.732;10.174;2024-03-17T10:01:56;10.37;;;6.20;;
19883;SDS011;10104;50.732;10.174;2024-03-17T10:04:36;11.20;;;7.20;;
19883;SDS011;10104;50.732;10.174;2024-03-17T10:07:16;9.17;;;6.67;;
19883;SDS011;10104;50.732;10.174;2024-03-17T10:10:09;8.30;;;6.03;;
19883;SDS011;10104;50.732;10.174;2024-03-17T10:12:51;9.90;;;6.90;;
19883;SDS011;10104;50.732;10.174;2024-03-17T10:15:31;9.83;;;7.03;;
19883;SDS011;10104;50.732;10.174;2024-03-17T10:18:19;8.17;;;6.57;;
19883;SDS011;10104;50.732;10.174;2024-03-17T10:21:01;11.40;;;6.60;;
19883;SDS011;10104;50.732;10.174;2024-03-17T10:23:41;11.07;;;6.67;;
19883;SDS011;10104;50.732;10.174;2024-03-17T10:26:20;11.27;;;7.07;;
19883;SDS011;10104;50.732;10.174;2024-03-17T10:29:00;9.93;;;6.60;;
19883;SDS011;10104;50.732;10.174;2024-03-17T10:31:40;8.13;;;6.20;;
19883;SDS011;10104;50.732;10.174;2024-03-17T10:34:20;9.43;;;6.07;;
19883;SDS011;10104;50.732;10.174;2024-03-17T10:37:08;10.60;;;6.10;;
19883;SDS011;10104;50.732;10.174;2024-03-17T10:39:54;8.03;;;6.10;;
19883;SDS011;10104;50.732;10.174;2024-03-17T10:42:34;7.73;;;6.30;;
19883;SDS011;10104;50.732;10.174;2024-03-17T10:45:15;7.90;;;6.00;;
19883;SDS011;10104;50.732;10.174;2024-03-17T10:47:54;8.93;;;5.97;;
19883;SDS011;10104;50.732;10.174;2024-03-17T10:50:37;10.57;;;5.97;;
19883;SDS011;10104;50.732;10.174;2024-03-17T10:53:19;7.97;;;6.20;;
19883;SDS011;10104;50.732;10.174;2024-03-17T10:56:05;9.47;;;6.40;;
19883;SDS011;10104;50.732;10.174;2024-03-17T10:58:48;9.90;;;6.73;;
19883;SDS011;10104;50.732;10.174;2024-03-17T11:01:34;9.13;;;6.00;;
19883;SDS011;10104;50.732;10.174;2024-03-17T11:04:16;10.37;;;6.50;;
19883;SDS011;10104;50.732;10.174;2024-03-17T11:06:56;8.33;;;6.10;;
19883;SDS011;10104;50.732;10.174;2024-03-17T11:09:37;8.47;;;5.50;;
19883;SDS011;10104;50.732;10.174;2024-03-17T11:15:39;9.13;;;5.97;;
19883;SDS011;10104;50.732;10.174;2024-03-17T11:24:00;10.37;;;6.67;;
19883;SDS011;10104;50.732;10.174;2024-03-17T11:26:40;9.00;;;6.63;;
19883;SDS011;10104;50.732;10.174;2024-03-17T11:29:26;9.07;;;6.57;;
19883;SDS011;10104;50.732;10.174;2024-03-17T11:32:24;8.43;;;5.67;;
19883;SDS011;10104;50.732;10.174;2024-03-17T11:35:13;10.73;;;6.63;;
19883;SDS011;10104;50.732;10.174;2024-03-17T11:37:53;9.13;;;7.07;;
19883;SDS011;10104;50.732;10.174;2024-03-17T11:40:32;8.47;;;6.30;;
19883;SDS011;10104;50.732;10.174;2024-03-17T11:43:12;10.47;;;5.87;;
19883;SDS011;10104;50.732;10.174;2024-03-17T11:45:55;11.73;;;7.37;;
19883;SDS011;10104;50.732;10.174;2024-03-17T11:48:35;8.73;;;6.43;;
19883;SDS011;10104;50.732;10.174;2024-03-17T11:51:14;10.10;;;6.83;;
19883;SDS011;10104;50.732;10.174;2024-03-17T11:54:00;11.10;;;6.37;;
19883;SDS011;10104;50.732;10.174;2024-03-17T11:56:39;9.70;;;6.33;;
19883;SDS011;10104;50.732;10.174;2024-03-17T11:59:19;8.43;;;5.47;;
19883;SDS011;10104;50.732;10.174;2024-03-17T12:01:59;8.15;;;5.72;;
19883;SDS011;10104;50.732;10.174;2024-03-17T12:04:40;7.32;;;5.78;;
19883;SDS011;10104;50.732;10.174;2024-03-17T12:07:20;8.27;;;5.90;;
19883;SDS011;10104;50.732;10.174;2024-03-17T12:10:02;7.55;;;5.82;;
19883;SDS011;10104;50.732;10.174;2024-03-17T12:12:46;9.00;;;6.20;;
19883;SDS011;10104;50.732;10.174;2024-03-17T12:15:26;7.95;;;5.78;;
19883;SDS011;10104;50.732;10.174;2024-03-17T12:18:05;8.45;;;5.60;;
19883;SDS011;10104;50.732;10.174;2024-03-17T12:20:58;8.30;;;5.43;;
19883;SDS011;10104;50.732;10.174;2024-03-17T12:23:36;7.97;;;5.13;;
19883;SDS011;10104;50.732;10.174;2024-03-17T12:26:16;7.82;;;4.97;;
19883;SDS011;10104;50.732;10.174;2024-03-17T12:28:55;8.23;;;5.38;;
19883;SDS011;10104;50.732;10.174;2024-03-17T12:31:34;6.18;;;5.10;;
19883;SDS011;10104;50.732;10.174;2024-03-17T12:34:13;9.00;;;5.30;;
19883;SDS011;10104;50.732;10.174;2024-03-17T12:36:53;6.93;;;5.55;;
19883;SDS011;10104;50.732;10.174;2024-03-17T12:39:34;8.82;;;6.20;;
19883;SDS011;10104;50.732;10.174;2024-03-17T12:42:23;7.88;;;5.63;;
19883;SDS011;10104;50.732;10.174;2024-03-17T12:45:03;10.68;;;7.32;;
19883;SDS011;10104;50.732;10.174;2024-03-17T12:47:50;7.43;;;6.00;;
19883;SDS011;10104;50.732;10.174;2024-03-17T12:50:30;9.65;;;5.30;;
19883;SDS011;10104;50.732;10.174;2024-03-17T12:53:13;7.68;;;5.03;;
19883;SDS011;10104;50.732;10.174;2024-03-17T12:55:55;7.35;;;5.25;;
19883;SDS011;10104;50.732;10.174;2024-03-17T12:58:54;7.60;;;4.65;;
19883;SDS011;10104;50.732;10.174;2024-03-17T13:02:03;7.50;;;5.03;;
19883;SDS011;10104;50.732;10.174;2024-03-17T13:07:53;10.63;;;5.22;;
19883;SDS011;10104;50.732;10.174;2024-03-17T13:10:35;7.38;;;5.20;;
19883;SDS011;10104;50.732;10.174;2024-03-17T13:13:14;5.80;;;4.97;;
19883;SDS011;10104;50.732;10.174;2024-03-17T13:15:55;5.93;;;4.95;;
19883;SDS011;10104;50.732;10.174;2024-03-17T13:18:34;6.63;;;4.97;;
19883;SDS011;10104;50.732;10.174;2024-03-17T13:21:14;6.65;;;4.75;;
19883;SDS011;10104;50.732;10.174;2024-03-17T13:23:53;8.40;;;5.05;;
19883;SDS011;10104;50.732;10.174;2024-03-17T13:26:32;6.55;;;4.72;;
19883;SDS011;10104;50.732;10.174;2024-03-17T13:29:11;6.50;;;4.90;;
19883;SDS011;10104;50.732;10.174;2024-03-17T13:31:50;8.88;;;5.18;;
19883;SDS011;10104;50.732;10.174;2024-03-17T13:34:30;6.68;;;4.68;;
19883;SDS011;10104;50.732;10.174;2024-03-17T13:37:10;5.80;;;4.75;;
19883;SDS011;10104;50.732;10.174;2024-03-17T13:39:49;7.53;;;5.15;;
19883;SDS011;10104;50.732;10.174;2024-03-17T13:42:28;5.82;;;4.35;;
19883;SDS011;10104;50.732;10.174;2024-03-17T13:45:09;5.55;;;4.85;;
19883;SDS011;10104;50.732;10.174;2024-03-17T13:47:51;7.25;;;4.68;;
19883;SDS011;10104;50.732;10.174;2024-03-17T13:50:34;4.93;;;4.43;;
19883;SDS011;10104;50.732;10.174;2024-03-17T13:53:13;6.20;;;4.50;;
19883;SDS011;10104;50.732;10.174;2024-03-17T13:55:52;5.43;;;4.50;;
19883;SDS011;10104;50.732;10.174;2024-03-17T13:58:31;6.43;;;4.90;;
19883;SDS011;10104;50.732;10.174;2024-03-17T14:01:10;6.07;;;4.97;;
19883;SDS011;10104;50.732;10.174;2024-03-17T14:03:49;8.50;;;5.10;;
19883;SDS011;10104;50.732;10.174;2024-03-17T14:06:29;6.15;;;4.80;;
19883;SDS011;10104;50.732;10.174;2024-03-17T14:09:09;5.60;;;4.50;;
19883;SDS011;10104;50.732;10.174;2024-03-17T14:11:48;7.55;;;4.85;;
19883;SDS011;10104;50.732;10.174;2024-03-17T14:14:29;7.95;;;5.15;;
19883;SDS011;10104;50.732;10.174;2024-03-17T14:17:09;6.15;;;5.00;;
19883;SDS011;10104;50.732;10.174;2024-03-17T14:19:48;7.00;;;4.80;;
19883;SDS011;10104;50.732;10.174;2024-03-17T14:22:27;6.30;;;4.57;;
19883;SDS011;10104;50.732;10.174;2024-03-17T14:25:07;6.82;;;4.93;;
19883;SDS011;10104;50.732;10.174;2024-03-17T14:27:51;7.07;;;4.57;;
19883;SDS011;10104;50.732;10.174;2024-03-17T14:30:31;5.38;;;4.15;;
19883;SDS011;10104;50.732;10.174;2024-03-17T14:33:12;5.43;;;4.00;;
19883;SDS011;10104;50.732;10.174;2024-03-17T14:35:57;4.65;;;4.00;;
19883;SDS011;10104;50.732;10.174;2024-03-17T14:38:37;4.97;;;4.13;;
19883;SDS011;10104;50.732;10.174;2024-03-17T14:41:16;5.53;;;4.57;;
19883;SDS011;10104;50.732;10.174;2024-03-17T14:43:55;4.97;;;4.20;;
19883;SDS011;10104;50.732;10.174;2024-03-17T14:46:36;5.97;;;4.50;;
19883;SDS011;10104;50.732;10.174;2024-03-17T14:49:16;4.63;;;4.07;;
19883;SDS011;10104;50.732;10.174;2024-03-17T14:51:58;7.07;;;4.38;;
19883;SDS011;10104;50.732;10.174;2024-03-17T14:54:38;10.20;;;6.43;;
19883;SDS011;10104;50.732;10.174;2024-03-17T14:57:17;5.40;;;3.85;;
19883;SDS011;10104;50.732;10.174;2024-03-17T14:59:59;5.65;;;4.13;;
19883;SDS011;10104;50.732;10.174;2024-03-17T15:02:37;5.32;;;3.55;;
19883;SDS011;10104;50.732;10.174;2024-03-17T15:05:17;5.25;;;4.00;;
19883;SDS011;10104;50.732;10.174;2024-03-17T15:08:01;7.45;;;3.53;;
19883;SDS011;10104;50.732;10.174;2024-03-17T15:10:40;5.82;;;3.92;;
19883;SDS011;10104;50.732;10.174;2024-03-17T15:13:20;7.05;;;3.40;;
19883;SDS011;10104;50.732;10.174;2024-03-17T15:15:59;6.97;;;3.40;;
19883;SDS011;10104;50.732;10.174;2024-03-17T15:18:38;4.47;;;2.92;;
19883;SDS011;10104;50.732;10.174;2024-03-17T15:21:18;4.40;;;3.38;;
19883;SDS011;10104;50.732;10.174;2024-03-17T15:23:57;5.45;;;3.50;;
19883;SDS011;10104;50.732;10.174;2024-03-17T15:26:37;4.75;;;3.60;;
19883;SDS011;10104;50.732;10.174;2024-03-17T15:29:18;7.05;;;4.70;;
19883;SDS011;10104;50.732;10.174;2024-03-17T15:31:57;7.13;;;5.05;;
19883;SDS011;10104;50.732;10.174;2024-03-17T15:34:37;9.30;;;6.43;;
19883;SDS011;10104;50.732;10.174;2024-03-17T15:37:16;6.53;;;4.53;;
19883;SDS011;10104;50.732;10.174;2024-03-17T15:39:56;7.38;;;3.30;;
19883;SDS011;10104;50.732;10.174;2024-03-17T15:42:35;3.85;;;3.17;;
19883;SDS011;10104;50.732;10.174;2024-03-17T15:45:15;4.95;;;3.22;;
19883;SDS011;10104;50.732;10.174;2024-03-17T15:47:55;8.25;;;3.63;;
19883;SDS011;10104;50.732;10.174;2024-03-17T15:50:35;5.75;;;3.70;;
19883;SDS011;10104;50.732;10.174;2024-03-17T15:53:18;6.47;;;4.20;;
19883;SDS011;10104;50.732;10.174;2024-03-17T15:55:58;5.70;;;3.95;;
19883;SDS011;10104;50.732;10.174;2024-03-17T15:58:40;9.02;;;4.53;;
19883;SDS011;10104;50.732;10.174;2024-03-17T16:01:19;6.53;;;3.50;;